createdAt,value
2022-08-04T00:00:02.547Z,19.80
2022-08-04T00:02:57.713Z,19.80
2022-08-04T00:05:45.791Z,19.60
2022-08-04T00:08:22.768Z,19.50
2022-08-04T00:10:54.355Z,19.60
2022-08-04T00:13:30.884Z,19.60
2022-08-04T00:16:06.758Z,19.60
2022-08-04T00:18:39.935Z,19.50
2022-08-04T00:21:10.544Z,19.60
2022-08-04T00:24:10.559Z,19.50
2022-08-04T00:26:33.673Z,19.50
2022-08-04T00:29:01.187Z,19.50
2022-08-04T00:31:33.361Z,19.40
2022-08-04T00:34:16.600Z,19.40
2022-08-04T00:36:44.499Z,19.30
2022-08-04T00:39:16.793Z,19.20
2022-08-04T00:42:11.501Z,19.20
2022-08-04T00:44:59.367Z,19.10
2022-08-04T00:47:47.761Z,19.20
2022-08-04T00:50:33.018Z,19.20
2022-08-04T00:53:34.051Z,19.00
2022-08-04T00:56:27.592Z,19.00
2022-08-04T00:59:14.343Z,19.00
2022-08-04T01:01:53.197Z,19.00
2022-08-04T01:04:33.521Z,19.00
2022-08-04T01:07:18.170Z,19.00
2022-08-04T01:10:07.950Z,18.90
2022-08-04T01:12:40.867Z,18.80
2022-08-04T01:15:19.315Z,18.80
2022-08-04T01:17:46.262Z,18.90
2022-08-04T01:20:21.168Z,18.90
2022-08-04T01:23:27.335Z,18.80
2022-08-04T01:26:43.958Z,18.80
2022-08-04T01:29:16.043Z,18.80
2022-08-04T01:31:52.152Z,18.80
2022-08-04T01:34:22.039Z,18.70
2022-08-04T01:37:00.185Z,18.70
2022-08-04T01:39:43.054Z,18.70
2022-08-04T01:42:12.766Z,18.70
2022-08-04T01:45:00.677Z,18.60
2022-08-04T01:47:31.167Z,18.60
2022-08-04T01:50:13.035Z,18.50
2022-08-04T01:52:41.378Z,18.40
2022-08-04T01:55:12.012Z,18.50
2022-08-04T01:57:50.530Z,18.50
2022-08-04T02:00:20.320Z,18.40
2022-08-04T02:02:47.964Z,18.40
2022-08-04T02:05:17.439Z,18.30
2022-08-04T02:07:50.890Z,18.30
2022-08-04T02:10:27.754Z,18.20
2022-08-04T02:13:09.990Z,18.30
2022-08-04T02:16:16.390Z,18.20
2022-08-04T02:18:44.420Z,18.30
2022-08-04T02:21:13.918Z,18.20
2022-08-04T02:23:42.623Z,18.30
2022-08-04T02:26:19.383Z,18.20
2022-08-04T02:29:20.541Z,18.20
2022-08-04T02:31:49.473Z,18.10
2022-08-04T02:34:38.972Z,18.10
2022-08-04T02:37:07.238Z,18.00
2022-08-04T02:39:48.439Z,18.00
2022-08-04T02:42:17.376Z,17.90
2022-08-04T02:44:50.583Z,17.90
2022-08-04T02:47:22.012Z,17.90
2022-08-04T02:49:51.677Z,17.90
2022-08-04T02:52:21.220Z,17.90
2022-08-04T02:54:51.806Z,17.90
2022-08-04T02:57:20.210Z,17.90
2022-08-04T03:00:16.469Z,17.90
2022-08-04T03:03:20.977Z,17.70
2022-08-04T03:06:20.268Z,17.70
2022-08-04T03:09:45.794Z,17.70
2022-08-04T03:12:18.560Z,17.80
2022-08-04T03:14:55.684Z,17.80
2022-08-04T03:17:52.828Z,17.60
2022-08-04T03:20:48.114Z,17.50
2022-08-04T03:23:33.752Z,17.50
2022-08-04T03:26:19.463Z,17.50
2022-08-04T03:29:08.196Z,17.50
2022-08-04T03:31:53.924Z,17.50
2022-08-04T03:35:01.930Z,17.50
2022-08-04T03:37:44.337Z,17.50
2022-08-04T03:40:37.603Z,17.50
2022-08-04T03:43:57.849Z,17.40
2022-08-04T03:46:27.956Z,17.30
2022-08-04T03:49:10.496Z,17.30
2022-08-04T03:52:10.287Z,17.30
2022-08-04T03:55:14.710Z,17.30
2022-08-04T03:57:55.109Z,17.20
2022-08-04T04:00:34.604Z,17.20
2022-08-04T04:03:04.586Z,17.10
2022-08-04T04:06:00.144Z,17.20
2022-08-04T04:08:56.164Z,17.30
2022-08-04T04:11:56.334Z,17.30
2022-08-04T04:14:58.880Z,17.30
2022-08-04T04:17:46.237Z,17.30
2022-08-04T04:20:32.332Z,17.30
2022-08-04T04:23:24.109Z,17.20
2022-08-04T04:26:15.720Z,17.20
2022-08-04T04:29:20.031Z,17.20
2022-08-04T04:32:17.430Z,17.20
2022-08-04T04:34:53.473Z,17.10
2022-08-04T04:37:21.497Z,17.20
2022-08-04T04:40:07.543Z,17.20
2022-08-04T04:43:02.200Z,17.20
2022-08-04T04:45:36.878Z,17.20
2022-08-04T04:48:25.765Z,17.30
2022-08-04T04:51:31.421Z,17.30
2022-08-04T04:54:01.188Z,17.40
2022-08-04T04:56:33.839Z,17.50
2022-08-04T04:59:03.354Z,17.50
2022-08-04T05:01:42.172Z,17.60
2022-08-04T05:04:28.199Z,17.60
2022-08-04T05:07:25.759Z,17.70
2022-08-04T05:10:15.289Z,17.70
2022-08-04T05:14:32.757Z,17.80
2022-08-04T05:15:42.630Z,17.80
2022-08-04T05:18:16.565Z,17.80
2022-08-04T05:20:48.583Z,17.90
2022-08-04T05:23:44.680Z,17.90
2022-08-04T05:26:16.335Z,18.00
2022-08-04T05:28:45.442Z,18.00
2022-08-04T05:31:36.701Z,18.00
2022-08-04T05:34:19.006Z,18.10
2022-08-04T05:36:53.294Z,18.30
2022-08-04T05:39:28.884Z,18.30
2022-08-04T05:42:04.416Z,18.40
2022-08-04T05:44:33.280Z,18.60
2022-08-04T05:47:01.338Z,18.60
2022-08-04T05:49:29.446Z,18.70
2022-08-04T05:52:00.874Z,18.80
2022-08-04T05:54:30.954Z,18.90
2022-08-04T05:56:59.143Z,18.90
2022-08-04T05:59:27.715Z,19.00
2022-08-04T06:01:58.236Z,19.20
2022-08-04T06:04:41.444Z,19.30
2022-08-04T06:07:11.287Z,19.40
2022-08-04T06:09:38.490Z,19.50
2022-08-04T06:12:09.412Z,19.60
2022-08-04T06:14:40.754Z,19.70
2022-08-04T06:18:33.713Z,19.70
2022-08-04T06:20:18.459Z,19.70
2022-08-04T06:22:47.376Z,19.90
2022-08-04T06:25:20.515Z,20.10
2022-08-04T06:27:49.363Z,20.10
2022-08-04T06:30:19.288Z,20.40
2022-08-04T06:32:48.742Z,20.50
2022-08-04T06:35:20.030Z,20.60
2022-08-04T06:37:48.790Z,20.80
2022-08-04T06:40:29.550Z,20.90
2022-08-04T06:43:06.464Z,21.00
2022-08-04T06:45:39.166Z,21.00
2022-08-04T06:48:07.243Z,21.00
2022-08-04T06:51:24.373Z,21.10
2022-08-04T06:53:27.225Z,21.20
2022-08-04T06:55:56.356Z,21.50
2022-08-04T06:58:24.877Z,21.50
2022-08-04T07:00:52.841Z,21.60
2022-08-04T07:03:21.907Z,21.80
2022-08-04T07:05:51.373Z,21.90
2022-08-04T07:08:19.864Z,22.00
2022-08-04T07:10:47.492Z,22.10
2022-08-04T07:13:15.817Z,22.20
2022-08-04T07:15:45.931Z,22.30
2022-08-04T07:18:13.139Z,22.50
2022-08-04T07:20:44.956Z,22.50
2022-08-04T07:23:17.698Z,22.50
2022-08-04T07:26:00.000Z,22.60
2022-08-04T07:28:40.011Z,22.70
2022-08-04T07:31:11.145Z,22.70
2022-08-04T07:34:16.885Z,22.90
2022-08-04T07:36:50.313Z,23.10
2022-08-04T07:39:26.487Z,23.10
2022-08-04T07:41:57.113Z,23.40
2022-08-04T07:44:25.345Z,23.40
2022-08-04T07:46:52.641Z,23.40
2022-08-04T07:49:56.266Z,23.50
2022-08-04T07:52:08.638Z,23.70
2022-08-04T07:54:36.386Z,23.80
2022-08-04T07:57:03.651Z,23.90
2022-08-04T07:59:30.874Z,23.80
2022-08-04T08:02:01.117Z,23.90
2022-08-04T08:04:29.503Z,24.00
2022-08-04T08:06:58.846Z,24.00
2022-08-04T08:09:26.213Z,24.20
2022-08-04T08:12:38.286Z,24.50
2022-08-04T08:14:42.731Z,24.30
2022-08-04T08:17:09.704Z,24.60
2022-08-04T08:19:37.132Z,24.60
2022-08-04T08:22:04.467Z,24.80
2022-08-04T08:24:36.042Z,24.80
2022-08-04T08:27:04.859Z,24.80
2022-08-04T08:29:34.763Z,25.00
2022-08-04T08:32:08.173Z,24.90
2022-08-04T08:34:38.698Z,25.10
2022-08-04T08:37:15.381Z,25.30
2022-08-04T08:40:08.156Z,25.40
2022-08-04T08:42:59.321Z,25.40
2022-08-04T08:46:48.582Z,25.50
2022-08-04T08:50:01.993Z,25.60
2022-08-04T08:53:00.668Z,25.90
2022-08-04T08:55:42.991Z,26.10
2022-08-04T08:58:32.461Z,26.20
2022-08-04T09:01:18.395Z,26.20
2022-08-04T09:04:06.585Z,26.20
2022-08-04T09:06:51.989Z,26.20
2022-08-04T09:09:43.768Z,26.50
2022-08-04T09:12:20.042Z,26.80
2022-08-04T09:14:58.991Z,26.70
2022-08-04T09:17:52.331Z,26.80
2022-08-04T09:20:37.533Z,27.00
2022-08-04T09:23:17.287Z,26.90
2022-08-04T09:26:06.042Z,27.00
2022-08-04T09:28:54.198Z,27.10
2022-08-04T09:31:28.599Z,27.10
2022-08-04T09:34:32.677Z,27.00
2022-08-04T09:37:15.128Z,27.10
2022-08-04T09:40:14.761Z,27.30
2022-08-04T09:43:59.095Z,27.50
2022-08-04T09:46:34.524Z,27.60
2022-08-04T09:49:23.416Z,27.70
2022-08-04T09:52:03.625Z,27.70
2022-08-04T09:55:11.959Z,27.80
2022-08-04T09:58:01.849Z,27.90
2022-08-04T10:00:42.158Z,27.90
2022-08-04T10:03:17.469Z,28.00
2022-08-04T10:06:18.313Z,28.00
2022-08-04T10:09:22.859Z,28.20
2022-08-04T10:12:23.112Z,28.30
2022-08-04T10:14:58.002Z,28.40
2022-08-04T10:17:32.556Z,28.50
2022-08-04T10:20:33.979Z,28.60
2022-08-04T10:23:56.020Z,28.70
2022-08-04T10:26:55.583Z,28.80
2022-08-04T10:29:33.251Z,29.00
2022-08-04T10:32:11.875Z,28.80
2022-08-04T10:34:59.905Z,28.90
2022-08-04T10:38:01.435Z,28.90
2022-08-04T10:40:51.670Z,28.90
2022-08-04T10:43:24.593Z,28.90
2022-08-04T10:46:13.485Z,29.00
2022-08-04T10:49:31.892Z,29.20
2022-08-04T10:52:25.055Z,29.20
2022-08-04T10:55:06.166Z,29.20
2022-08-04T10:57:39.131Z,29.40
2022-08-04T11:00:09.864Z,29.50
2022-08-04T11:02:47.034Z,29.60
2022-08-04T11:05:34.381Z,29.80
2022-08-04T11:08:40.431Z,29.80
2022-08-04T11:11:15.421Z,30.00
2022-08-04T11:13:53.308Z,30.00
2022-08-04T11:16:25.479Z,29.80
2022-08-04T11:19:45.158Z,29.80
2022-08-04T11:22:28.123Z,30.00
2022-08-04T11:25:07.044Z,30.20
2022-08-04T11:27:51.373Z,30.00
2022-08-04T11:30:19.998Z,30.00
2022-08-04T11:33:08.242Z,30.20
2022-08-04T11:35:42.427Z,30.30
2022-08-04T11:38:21.702Z,30.50
2022-08-04T11:41:02.717Z,30.60
2022-08-04T11:44:00.714Z,30.60
2022-08-04T11:46:39.207Z,30.80
2022-08-04T11:49:20.405Z,30.70
2022-08-04T11:51:50.337Z,30.80
2022-08-04T11:54:19.184Z,30.80
2022-08-04T11:56:46.520Z,30.90
2022-08-04T11:59:13.881Z,30.90
2022-08-04T12:02:08.735Z,30.80
2022-08-04T12:04:55.515Z,30.80
2022-08-04T12:08:00.217Z,30.70
2022-08-04T12:10:51.314Z,30.70
2022-08-04T12:13:31.890Z,30.70
2022-08-04T12:16:22.600Z,31.00
2022-08-04T12:18:58.888Z,31.30
2022-08-04T12:21:29.476Z,31.30
2022-08-04T12:24:03.855Z,31.10
2022-08-04T12:26:40.361Z,31.30
2022-08-04T12:29:10.797Z,31.40
2022-08-04T12:32:09.336Z,31.20
2022-08-04T12:34:51.465Z,31.00
2022-08-04T12:37:46.105Z,31.00
2022-08-04T12:40:50.413Z,31.10
2022-08-04T12:43:42.139Z,31.00
2022-08-04T12:46:39.111Z,31.10
2022-08-04T12:49:07.116Z,31.00
2022-08-04T12:52:08.494Z,31.10
2022-08-04T12:54:33.583Z,31.10
2022-08-04T12:57:02.155Z,31.30
2022-08-04T12:59:29.215Z,31.20
2022-08-04T13:02:08.057Z,31.40
2022-08-04T13:04:50.356Z,31.30
2022-08-04T13:07:24.752Z,31.30
2022-08-04T13:09:52.375Z,31.30
2022-08-04T13:12:25.940Z,31.60
2022-08-04T13:15:17.944Z,31.70
2022-08-04T13:17:59.121Z,31.50
2022-08-04T13:20:38.436Z,31.70
2022-08-04T13:23:21.455Z,31.90
2022-08-04T13:26:42.976Z,31.80
2022-08-04T13:28:45.556Z,31.70
2022-08-04T13:31:20.687Z,31.70
2022-08-04T13:33:50.771Z,31.60
2022-08-04T13:36:19.995Z,31.50
2022-08-04T13:38:55.908Z,31.50
2022-08-04T13:41:27.627Z,31.60
2022-08-04T13:44:19.132Z,31.70
2022-08-04T13:46:55.769Z,31.70
2022-08-04T13:49:37.558Z,31.50
2022-08-04T13:52:11.146Z,31.50
2022-08-04T13:54:44.244Z,31.70
2022-08-04T13:57:31.254Z,31.70
2022-08-04T14:00:03.392Z,31.60
2022-08-04T14:02:45.983Z,31.60
2022-08-04T14:05:27.417Z,31.50
2022-08-04T14:08:01.004Z,31.50
2022-08-04T14:10:27.993Z,31.70
2022-08-04T14:12:56.325Z,31.80
2022-08-04T14:16:02.342Z,31.70
2022-08-04T14:18:30.644Z,31.80
2022-08-04T14:21:05.940Z,31.90
2022-08-04T14:23:54.259Z,31.70
2022-08-04T14:26:21.222Z,31.90
2022-08-04T14:29:26.884Z,31.80
2022-08-04T14:32:20.418Z,32.00
2022-08-04T14:34:51.368Z,31.90
2022-08-04T14:37:23.081Z,31.90
2022-08-04T14:40:18.170Z,32.00
2022-08-04T14:42:54.921Z,32.10
2022-08-04T14:45:54.113Z,32.00
2022-08-04T14:48:23.255Z,31.90
2022-08-04T14:50:51.259Z,31.70
2022-08-04T14:53:29.377Z,31.90
2022-08-04T14:56:00.302Z,32.10
2022-08-04T14:58:34.860Z,32.20
2022-08-04T15:01:10.234Z,32.20
2022-08-04T15:03:50.547Z,32.10
2022-08-04T15:06:30.926Z,32.20
2022-08-04T15:09:01.493Z,32.20
2022-08-04T15:11:28.895Z,32.20
2022-08-04T15:13:57.453Z,32.40
2022-08-04T15:16:27.252Z,32.20
2022-08-04T15:18:56.747Z,32.20
2022-08-04T15:21:26.102Z,32.20
2022-08-04T15:23:53.125Z,32.00
2022-08-04T15:26:30.146Z,32.00
2022-08-04T15:29:05.479Z,31.90
2022-08-04T15:32:04.008Z,31.90
2022-08-04T15:34:26.004Z,31.80
2022-08-04T15:36:57.951Z,31.80
2022-08-04T15:39:58.615Z,31.80
2022-08-04T15:43:16.513Z,31.70
2022-08-04T15:46:37.420Z,31.70
2022-08-04T15:48:39.247Z,31.80
2022-08-04T15:51:14.763Z,31.90
2022-08-04T15:54:03.657Z,31.80
2022-08-04T15:56:31.128Z,31.80
2022-08-04T15:58:58.876Z,31.80
2022-08-04T16:01:28.041Z,31.70
2022-08-04T16:04:00.563Z,31.90
2022-08-04T16:06:29.669Z,31.90
2022-08-04T16:09:02.313Z,31.70
2022-08-04T16:11:31.063Z,31.70
2022-08-04T16:13:59.151Z,31.60
2022-08-04T16:16:49.240Z,31.50
2022-08-04T16:19:53.380Z,31.50
2022-08-04T16:22:40.885Z,31.40
2022-08-04T16:25:09.444Z,31.30
2022-08-04T16:27:45.100Z,31.30
2022-08-04T16:30:15.129Z,31.30
2022-08-04T16:32:44.591Z,31.40
2022-08-04T16:35:26.163Z,31.40
2022-08-04T16:38:10.427Z,31.40
2022-08-04T16:40:43.654Z,31.30
2022-08-04T16:43:16.289Z,31.30
2022-08-04T16:45:46.490Z,31.20
2022-08-04T16:48:15.163Z,31.10
2022-08-04T16:50:48.782Z,31.10
2022-08-04T16:53:53.965Z,31.00
2022-08-04T16:56:06.055Z,30.90
2022-08-04T16:58:36.771Z,30.90
2022-08-04T17:01:28.379Z,30.80
2022-08-04T17:04:05.096Z,30.80
2022-08-04T17:06:40.887Z,30.70
2022-08-04T17:09:14.201Z,30.70
2022-08-04T17:11:43.363Z,30.60
2022-08-04T17:14:10.747Z,30.60
2022-08-04T17:16:41.240Z,30.60
2022-08-04T17:19:24.218Z,30.50
2022-08-04T17:22:04.275Z,30.40
2022-08-04T17:24:33.702Z,30.40
2022-08-04T17:27:00.876Z,30.40
2022-08-04T17:29:43.435Z,30.20
2022-08-04T17:32:21.528Z,30.30
2022-08-04T17:34:55.158Z,30.30
2022-08-04T17:37:38.775Z,30.20
2022-08-04T17:40:11.145Z,30.00
2022-08-04T17:42:39.985Z,29.90
2022-08-04T17:48:11.247Z,29.60
2022-08-04T17:50:52.099Z,29.50
2022-08-04T17:56:36.341Z,29.50
2022-08-04T17:59:55.695Z,29.40
2022-08-04T18:02:08.957Z,29.20
2022-08-04T18:05:06.175Z,29.20
2022-08-04T18:08:38.851Z,29.10
2022-08-04T18:10:46.322Z,29.00
2022-08-04T18:13:26.193Z,28.80
2022-08-04T18:16:14.319Z,28.80
2022-08-04T18:19:11.804Z,28.70
2022-08-04T18:21:45.530Z,28.50
2022-08-04T18:24:14.022Z,28.40
2022-08-04T18:26:41.186Z,28.30
2022-08-04T18:29:08.170Z,28.30
2022-08-04T18:31:55.155Z,28.10
2022-08-04T18:34:22.271Z,27.90
2022-08-04T18:36:57.326Z,27.50
2022-08-04T18:42:15.200Z,27.50
2022-08-04T18:47:30.325Z,27.30
2022-08-04T18:50:59.324Z,27.20
2022-08-04T18:55:55.779Z,27.00
2022-08-04T18:58:27.506Z,26.90
2022-08-04T19:00:56.184Z,26.80
2022-08-04T19:03:33.133Z,26.80
2022-08-04T19:06:02.568Z,26.50
2022-08-04T19:08:33.381Z,26.60
2022-08-04T19:11:29.330Z,26.50
2022-08-04T19:13:57.936Z,26.40
2022-08-04T19:16:30.345Z,26.10
2022-08-04T19:18:58.812Z,26.10
2022-08-04T19:22:00.393Z,26.10
2022-08-04T19:27:09.095Z,25.80
2022-08-04T19:29:41.284Z,25.90
2022-08-04T19:32:14.884Z,25.80
2022-08-04T19:34:47.591Z,25.60
2022-08-04T19:37:57.272Z,25.50
2022-08-04T19:40:09.565Z,25.30
2022-08-04T19:42:37.739Z,25.20
2022-08-04T19:45:06.655Z,25.30
2022-08-04T19:48:17.715Z,25.20
2022-08-04T19:50:23.702Z,25.20
2022-08-04T19:52:52.723Z,25.20
2022-08-04T19:55:37.482Z,25.10
2022-08-04T19:58:08.816Z,25.10
2022-08-04T20:00:38.169Z,25.10
2022-08-04T20:03:11.645Z,25.10
2022-08-04T20:05:53.533Z,25.20
2022-08-04T20:08:32.214Z,24.80
2022-08-04T20:11:00.325Z,24.70
2022-08-04T20:13:37.446Z,24.70
2022-08-04T20:16:20.268Z,24.60
2022-08-04T20:18:59.537Z,24.50
2022-08-04T20:21:53.543Z,24.50
2022-08-04T20:24:40.204Z,24.40
2022-08-04T20:27:07.827Z,24.30
2022-08-04T20:29:41.129Z,24.40
2022-08-04T20:32:10.481Z,24.40
2022-08-04T20:34:40.207Z,24.30
2022-08-04T20:37:10.487Z,24.20
2022-08-04T20:39:38.428Z,24.20
2022-08-04T20:42:06.562Z,24.20
2022-08-04T20:44:33.884Z,24.20
2022-08-04T20:47:01.521Z,24.20
2022-08-04T20:49:34.991Z,24.20
2022-08-04T20:52:13.283Z,24.20
2022-08-04T20:54:48.657Z,24.20
2022-08-04T20:57:17.058Z,24.10
2022-08-04T20:59:59.834Z,23.70
2022-08-04T21:02:28.113Z,23.80
2022-08-04T21:04:56.155Z,23.60
2022-08-04T21:07:25.024Z,23.70
2022-08-04T21:09:52.479Z,23.60
2022-08-04T21:15:13.368Z,23.50
2022-08-04T21:17:58.870Z,23.40
2022-08-04T21:20:29.002Z,23.30
2022-08-04T21:22:59.630Z,23.30
2022-08-04T21:25:29.454Z,23.30
2022-08-04T21:27:59.034Z,23.30
2022-08-04T21:30:31.339Z,23.20
2022-08-04T21:33:04.773Z,23.10
2022-08-04T21:35:38.994Z,23.20
2022-08-04T21:38:16.624Z,23.20
2022-08-04T21:40:56.191Z,23.20
2022-08-04T21:43:28.464Z,23.10
2022-08-04T21:46:04.968Z,23.00
2022-08-04T21:48:32.874Z,23.00
2022-08-04T21:51:58.372Z,22.80
2022-08-04T21:54:17.333Z,22.80
2022-08-04T21:56:51.353Z,22.80
2022-08-04T21:59:24.171Z,22.70
2022-08-04T22:02:00.073Z,22.70
2022-08-04T22:04:27.903Z,22.60
2022-08-04T22:06:54.891Z,22.50
2022-08-04T22:09:22.389Z,22.60
2022-08-04T22:11:51.836Z,22.70
2022-08-04T22:14:29.632Z,22.60
2022-08-04T22:17:04.123Z,22.40
2022-08-04T22:19:50.161Z,22.30
2022-08-04T22:22:25.372Z,22.30
2022-08-04T22:24:58.828Z,22.40
2022-08-04T22:27:47.308Z,22.30
2022-08-04T22:30:17.515Z,22.20
2022-08-04T22:32:47.160Z,22.20
2022-08-04T22:35:35.667Z,22.20
2022-08-04T22:38:06.935Z,22.10
2022-08-04T22:40:38.414Z,22.10
2022-08-04T22:43:07.382Z,22.10
2022-08-04T22:45:52.400Z,22.10
2022-08-04T22:48:20.318Z,21.90
2022-08-04T22:50:47.371Z,21.90
2022-08-04T22:53:18.009Z,21.90
2022-08-04T22:56:06.586Z,21.90
2022-08-04T22:58:32.531Z,21.90
2022-08-04T23:00:59.971Z,21.80
2022-08-04T23:03:36.547Z,21.80
2022-08-04T23:06:11.089Z,21.70
2022-08-04T23:08:43.101Z,21.70
2022-08-04T23:11:13.887Z,21.80
2022-08-04T23:13:42.104Z,21.80
2022-08-04T23:16:10.521Z,21.70
2022-08-04T23:18:40.126Z,21.50
2022-08-04T23:21:10.136Z,21.40
2022-08-04T23:23:38.141Z,21.40
2022-08-04T23:26:16.309Z,21.50
2022-08-04T23:28:46.063Z,21.50
2022-08-04T23:31:14.531Z,21.50
2022-08-04T23:33:50.843Z,21.50
2022-08-04T23:36:26.442Z,21.50
2022-08-04T23:39:04.070Z,21.50
2022-08-04T23:41:54.393Z,21.40
2022-08-04T23:44:25.131Z,21.30
2022-08-04T23:47:00.923Z,21.30
2022-08-04T23:49:44.881Z,21.30
2022-08-04T23:52:23.467Z,21.40
2022-08-04T23:54:55.062Z,21.20
2022-08-04T23:57:22.345Z,21.10
2022-08-04T23:59:54.293Z,21.00
